Time;durP1;ratioP1;P1;durP2;ratioP2;P2;SDS_P1;SDS_P2;PMS_P1;PMS_P2;Temp;Humidity;BMP_temperature;BMP_pressure;BME280_temperature;BME280_humidity;BME280_pressure;Samples;Min_cycle;Max_cycle;Signal;HPM_P1;HPM_P2
2020/12/29 00:00:20;;;;;;;29.95;22.65;;;2.70;1.00;;;;;;5015099;28;21473;-79
2020/12/29 00:02:49;;;;;;;33.20;26.05;;;2.70;1.00;;;;;;5013249;28;20251;-78
2020/12/29 00:05:16;;;;;;;32.47;25.60;;;2.70;1.00;;;;;;5016496;28;20250;-79
2020/12/29 00:07:53;;;;;;;34.55;26.15;;;2.60;1.00;;;;;;5020445;28;20302;-79
2020/12/29 00:10:20;;;;;;;30.02;24.30;;;2.60;1.00;;;;;;4999269;28;20424;-79
2020/12/29 00:12:46;;;;;;;29.55;23.23;;;2.60;1.00;;;;;;5004724;28;20225;-77
2020/12/29 00:15:12;;;;;;;32.80;24.35;;;2.60;1.00;;;;;;5021098;28;20248;-78
2020/12/29 00:17:39;;;;;;;30.02;23.85;;;2.70;1.00;;;;;;5030402;28;20227;-79
2020/12/29 00:20:06;;;;;;;31.95;25.63;;;2.60;1.00;;;;;;5028438;28;20208;-79
2020/12/29 00:22:32;;;;;;;31.60;25.10;;;2.60;1.00;;;;;;5030364;28;20284;-78
2020/12/29 00:24:59;;;;;;;32.55;25.50;;;2.50;1.00;;;;;;5024193;28;21095;-79
2020/12/29 00:27:26;;;;;;;31.73;24.48;;;2.40;1.00;;;;;;5013630;28;20239;-79
2020/12/29 00:29:53;;;;;;;31.38;26.50;;;2.40;1.00;;;;;;4996280;28;20233;-80
2020/12/29 00:32:20;;;;;;;30.85;25.30;;;2.40;1.00;;;;;;5009782;28;20258;-79
2020/12/29 00:34:47;;;;;;;31.02;24.38;;;2.40;1.00;;;;;;5013724;28;20283;-78
2020/12/29 00:37:13;;;;;;;30.45;24.05;;;2.50;1.00;;;;;;5011558;28;20237;-79
2020/12/29 00:39:39;;;;;;;31.90;24.60;;;2.50;1.00;;;;;;5012561;28;21017;-79
2020/12/29 00:42:07;;;;;;;32.60;24.40;;;2.50;1.00;;;;;;5006201;28;20227;-79
2020/12/29 00:44:33;;;;;;;30.92;25.02;;;2.50;1.00;;;;;;5009314;28;20301;-79
2020/12/29 00:46:59;;;;;;;32.13;27.15;;;2.50;1.00;;;;;;5012816;28;20358;-77
2020/12/29 00:49:25;;;;;;;29.00;23.75;;;2.50;1.00;;;;;;5009024;28;22844;-79
2020/12/29 00:51:52;;;;;;;28.67;23.35;;;2.50;1.00;;;;;;5010280;28;20239;-78
2020/12/29 00:54:19;;;;;;;30.35;23.83;;;2.50;1.00;;;;;;5011423;28;20235;-78
2020/12/29 00:56:45;;;;;;;30.85;25.10;;;2.50;1.00;;;;;;4997421;28;20224;-80
2020/12/29 00:59:12;;;;;;;36.13;27.23;;;2.40;1.00;;;;;;5012141;28;20270;-79
2020/12/29 01:01:38;;;;;;;33.85;25.25;;;2.40;1.00;;;;;;5005190;28;20297;-80
2020/12/29 01:04:05;;;;;;;29.58;23.20;;;2.40;1.00;;;;;;4993445;28;20285;-80
2020/12/29 01:06:33;;;;;;;29.45;24.33;;;2.40;1.00;;;;;;4999338;28;20222;-79
2020/12/29 01:08:59;;;;;;;33.80;25.27;;;2.40;1.00;;;;;;5013300;28;20235;-79
2020/12/29 01:11:25;;;;;;;30.23;26.05;;;2.40;1.00;;;;;;5014351;28;20262;-78
2020/12/29 01:13:52;;;;;;;31.23;26.25;;;2.40;1.00;;;;;;5026915;28;20246;-77
2020/12/29 01:16:19;;;;;;;29.02;25.13;;;2.40;1.00;;;;;;5023819;28;20225;-77
2020/12/29 01:18:45;;;;;;;36.95;25.05;;;2.40;1.00;;;;;;5012127;28;20235;-77
2020/12/29 01:21:12;;;;;;;29.67;24.10;;;2.40;1.00;;;;;;5028223;28;20273;-78
2020/12/29 01:23:38;;;;;;;31.58;25.75;;;2.40;1.00;;;;;;5013913;28;20785;-80
2020/12/29 01:26:07;;;;;;;37.72;26.13;;;2.50;1.00;;;;;;5016819;28;20222;-79
2020/12/29 01:28:33;;;;;;;31.92;24.88;;;2.50;1.00;;;;;;5013856;28;20238;-79
2020/12/29 01:31:00;;;;;;;32.58;26.73;;;2.40;1.00;;;;;;5012703;28;20258;-80
2020/12/29 01:33:27;;;;;;;32.72;26.92;;;2.40;1.00;;;;;;5015624;28;20227;-79
2020/12/29 01:35:53;;;;;;;33.85;26.60;;;2.50;1.00;;;;;;5016442;28;20218;-80
2020/12/29 01:38:19;;;;;;;31.95;26.20;;;2.50;1.00;;;;;;5014932;28;20236;-79
2020/12/29 01:40:46;;;;;;;37.22;28.48;;;2.40;1.00;;;;;;5014675;28;20746;-79
2020/12/29 01:43:14;;;;;;;37.33;27.30;;;2.30;1.00;;;;;;5014544;28;20322;-77
2020/12/29 01:45:42;;;;;;;33.17;25.00;;;2.20;1.00;;;;;;5014565;28;20222;-80
2020/12/29 01:48:08;;;;;;;36.97;28.00;;;2.30;1.00;;;;;;5012531;28;21076;-78
2020/12/29 01:50:35;;;;;;;35.75;27.85;;;2.30;1.00;;;;;;5013145;28;20310;-77
2020/12/29 01:53:02;;;;;;;37.30;28.45;;;2.20;1.00;;;;;;5008025;28;20302;-78
2020/12/29 01:55:29;;;;;;;35.00;27.33;;;2.20;1.00;;;;;;5009382;28;20341;-78
2020/12/29 01:57:58;;;;;;;37.50;27.83;;;2.20;1.00;;;;;;5008567;28;20237;-79
2020/12/29 02:00:25;;;;;;;32.80;26.02;;;2.30;1.00;;;;;;5003104;28;21473;-78
2020/12/29 02:02:52;;;;;;;36.47;27.60;;;2.30;1.00;;;;;;4984394;28;20291;-78
2020/12/29 02:05:18;;;;;;;36.05;28.73;;;2.40;1.00;;;;;;5008674;28;20227;-79
2020/12/29 02:07:48;;;;;;;36.17;26.85;;;2.40;1.00;;;;;;5008641;28;20373;-76
2020/12/29 02:10:15;;;;;;;32.58;25.70;;;2.40;1.00;;;;;;4990402;28;20744;-79
2020/12/29 02:12:41;;;;;;;34.50;27.30;;;2.40;1.00;;;;;;4988527;28;20733;-79
2020/12/29 02:15:08;;;;;;;34.88;28.08;;;2.40;1.00;;;;;;5010543;28;20226;-77
2020/12/29 02:17:35;;;;;;;34.67;26.55;;;2.40;1.00;;;;;;5010035;28;20283;-79
2020/12/29 02:20:01;;;;;;;35.08;25.55;;;2.40;1.00;;;;;;5021996;28;21224;-78
2020/12/29 02:22:28;;;;;;;34.22;27.52;;;2.40;1.00;;;;;;5020246;28;20330;-79
2020/12/29 02:24:56;;;;;;;32.95;26.67;;;2.40;1.00;;;;;;5020830;28;20250;-79
2020/12/29 02:27:24;;;;;;;35.45;27.05;;;2.50;1.00;;;;;;5021532;28;20255;-78
2020/12/29 02:29:51;;;;;;;38.17;26.52;;;2.50;1.00;;;;;;5019491;28;20235;-76
2020/12/29 02:32:19;;;;;;;35.53;27.70;;;2.50;1.00;;;;;;5020075;28;20287;-78
2020/12/29 02:34:46;;;;;;;35.08;26.80;;;2.40;1.00;;;;;;5030511;28;20245;-78
2020/12/29 02:37:13;;;;;;;30.65;24.85;;;2.40;1.00;;;;;;5025693;28;20227;-78
2020/12/29 02:39:42;;;;;;;33.78;25.63;;;2.30;1.00;;;;;;5012413;28;20246;-78
2020/12/29 02:42:10;;;;;;;32.83;26.77;;;2.30;1.00;;;;;;5008845;28;20218;-78
2020/12/29 02:44:37;;;;;;;31.67;25.02;;;2.40;1.00;;;;;;5008423;28;21261;-80
2020/12/29 02:47:04;;;;;;;30.95;25.77;;;2.30;1.00;;;;;;5009721;28;20317;-79
2020/12/29 02:49:32;;;;;;;30.83;25.08;;;2.30;1.00;;;;;;5006905;28;20254;-78
2020/12/29 02:51:58;;;;;;;30.52;25.35;;;2.30;1.00;;;;;;5016641;28;20322;-79
2020/12/29 02:54:25;;;;;;;34.17;26.33;;;2.30;1.00;;;;;;5015091;28;20319;-79
2020/12/29 02:56:54;;;;;;;36.35;28.13;;;2.30;1.00;;;;;;4996780;28;20227;-79
2020/12/29 02:59:21;;;;;;;34.22;28.10;;;2.30;1.00;;;;;;5008805;28;20233;-78
2020/12/29 03:01:47;;;;;;;33.25;25.55;;;2.20;1.00;;;;;;5009711;28;20218;-79
2020/12/29 03:04:14;;;;;;;32.38;25.95;;;2.30;1.00;;;;;;4997900;28;20218;-79
2020/12/29 03:06:40;;;;;;;41.83;29.58;;;2.30;1.00;;;;;;5009984;28;20215;-80
2020/12/29 03:09:06;;;;;;;33.95;25.83;;;2.20;1.00;;;;;;4994006;28;20242;-80
2020/12/29 03:11:33;;;;;;;31.95;25.10;;;2.20;1.00;;;;;;4989556;28;20851;-79
2020/12/29 03:14:02;;;;;;;33.03;27.48;;;2.20;1.00;;;;;;5011731;28;20330;-78
2020/12/29 03:16:29;;;;;;;32.72;25.73;;;2.20;1.00;;;;;;5011305;28;20219;-80
2020/12/29 03:18:56;;;;;;;34.00;27.08;;;2.20;1.00;;;;;;5011158;28;20227;-80
2020/12/29 03:21:23;;;;;;;30.20;25.25;;;2.20;1.00;;;;;;4989432;28;20254;-80
2020/12/29 03:23:50;;;;;;;36.97;26.77;;;2.20;1.00;;;;;;5011323;28;21684;-79
2020/12/29 03:26:16;;;;;;;36.47;26.95;;;2.00;1.00;;;;;;5012324;28;20216;-79
2020/12/29 03:28:42;;;;;;;32.33;26.98;;;2.00;1.00;;;;;;5007507;28;20235;-80
2020/12/29 03:31:10;;;;;;;31.95;25.17;;;2.00;1.00;;;;;;4992816;28;20277;-78
2020/12/29 03:33:36;;;;;;;32.75;25.98;;;2.10;1.00;;;;;;5012108;28;20223;-77
2020/12/29 03:36:03;;;;;;;36.30;26.35;;;2.20;1.00;;;;;;5020796;28;20268;-77
2020/12/29 03:38:29;;;;;;;35.70;26.70;;;2.20;1.00;;;;;;5013624;28;20262;-78
2020/12/29 03:40:56;;;;;;;38.58;26.50;;;2.20;1.00;;;;;;5013001;28;20230;-79
2020/12/29 03:43:23;;;;;;;34.65;26.13;;;2.20;1.00;;;;;;5002298;28;20250;-78
2020/12/29 03:45:50;;;;;;;36.40;26.05;;;2.30;1.00;;;;;;5008235;28;20301;-79
2020/12/29 03:48:20;;;;;;;34.78;26.30;;;2.30;1.00;;;;;;5007996;28;20804;-79
2020/12/29 03:50:46;;;;;;;32.33;25.10;;;2.30;1.00;;;;;;5006581;28;20304;-78
2020/12/29 03:53:13;;;;;;;37.42;27.50;;;2.30;1.00;;;;;;5016628;28;20261;-77
2020/12/29 03:55:39;;;;;;;34.45;26.38;;;2.30;1.00;;;;;;5016650;28;20266;-78
2020/12/29 03:58:06;;;;;;;36.03;26.15;;;2.30;1.00;;;;;;5013438;28;20235;-80
2020/12/29 04:00:35;;;;;;;34.00;25.45;;;2.30;1.00;;;;;;4988007;28;20838;-77
2020/12/29 04:03:02;;;;;;;32.63;24.92;;;2.30;1.00;;;;;;5008747;28;20219;-78
2020/12/29 04:05:30;;;;;;;34.88;25.92;;;2.40;1.00;;;;;;4992496;28;20231;-78
2020/12/29 04:07:56;;;;;;;37.85;27.30;;;2.30;1.00;;;;;;5012784;28;20239;-77
2020/12/29 04:10:23;;;;;;;31.63;24.98;;;2.30;1.00;;;;;;5020407;28;20246;-79
2020/12/29 04:12:49;;;;;;;35.05;26.85;;;2.30;1.00;;;;;;5020058;28;20342;-78
2020/12/29 04:15:16;;;;;;;33.92;25.73;;;2.40;1.00;;;;;;5017344;28;20232;-78
2020/12/29 04:17:44;;;;;;;36.45;28.50;;;2.40;1.00;;;;;;5009911;28;20322;-79
2020/12/29 04:20:12;;;;;;;34.78;27.45;;;2.40;1.00;;;;;;5010601;28;20253;-78
2020/12/29 04:22:40;;;;;;;35.47;25.67;;;2.50;1.00;;;;;;5006966;28;20381;-79
2020/12/29 04:25:08;;;;;;;34.25;25.88;;;2.50;1.00;;;;;;5009936;28;20307;-79
2020/12/29 04:27:36;;;;;;;31.98;25.92;;;2.40;1.00;;;;;;5008486;28;20241;-78
2020/12/29 04:30:03;;;;;;;30.45;26.00;;;2.30;1.00;;;;;;5009918;28;20261;-79
2020/12/29 04:32:30;;;;;;;31.77;25.13;;;2.30;1.00;;;;;;5008282;28;20254;-79
2020/12/29 04:34:56;;;;;;;33.88;26.35;;;2.30;1.00;;;;;;4992914;28;20333;-79
2020/12/29 04:37:22;;;;;;;33.75;25.73;;;2.40;1.00;;;;;;5009892;28;20688;-78
2020/12/29 04:39:49;;;;;;;35.40;25.70;;;2.40;1.00;;;;;;5008726;28;20260;-77
2020/12/29 04:42:15;;;;;;;31.23;26.90;;;2.30;1.00;;;;;;5004069;28;20309;-78
2020/12/29 04:44:43;;;;;;;36.53;26.00;;;2.30;1.00;;;;;;5012309;28;20242;-78
2020/12/29 04:47:10;;;;;;;31.10;24.45;;;2.30;1.00;;;;;;5029979;28;20279;-76
2020/12/29 04:49:38;;;;;;;32.00;25.50;;;2.40;1.00;;;;;;5026143;28;20266;-77
2020/12/29 04:52:05;;;;;;;33.25;27.42;;;2.40;1.00;;;;;;5025870;28;20322;-77
2020/12/29 04:54:33;;;;;;;33.10;25.48;;;2.30;1.00;;;;;;5017513;28;20232;-79
2020/12/29 04:57:02;;;;;;;36.13;26.20;;;2.30;1.00;;;;;;5015517;28;20979;-79
2020/12/29 04:59:29;;;;;;;29.05;25.85;;;2.30;1.00;;;;;;5012687;28;20302;-79
2020/12/29 05:01:56;;;;;;;33.38;25.10;;;2.40;1.00;;;;;;5007881;28;20313;-79
2020/12/29 05:04:22;;;;;;;34.63;25.83;;;2.30;1.00;;;;;;5009777;28;20277;-79
2020/12/29 05:06:49;;;;;;;36.20;25.35;;;2.20;1.00;;;;;;5007900;28;20254;-78
2020/12/29 05:09:17;;;;;;;32.05;27.38;;;2.20;1.00;;;;;;5016580;28;20309;-79
2020/12/29 05:11:43;;;;;;;31.95;25.20;;;2.20;1.00;;;;;;5003669;28;20233;-78
2020/12/29 05:14:11;;;;;;;34.75;25.17;;;2.20;1.00;;;;;;5002686;28;20273;-77
2020/12/29 05:16:38;;;;;;;34.15;26.65;;;2.20;1.00;;;;;;5010812;28;20279;-78
2020/12/29 05:19:09;;;;;;;31.23;24.52;;;2.10;1.00;;;;;;5013613;28;20238;-78
2020/12/29 05:21:37;;;;;;;32.40;25.50;;;2.10;1.00;;;;;;4989507;28;20876;-77
2020/12/29 05:24:13;;;;;;;33.22;24.98;;;2.10;1.00;;;;;;5004524;28;20279;-79
2020/12/29 05:26:41;;;;;;;29.58;24.38;;;2.00;1.00;;;;;;5008706;28;20223;-79
2020/12/29 05:29:08;;;;;;;34.28;27.10;;;2.00;1.00;;;;;;5003579;28;20314;-78
2020/12/29 05:31:36;;;;;;;33.20;25.70;;;1.90;1.00;;;;;;4992504;28;20235;-79
2020/12/29 05:34:04;;;;;;;32.55;25.02;;;1.90;1.00;;;;;;5006562;28;20230;-79
2020/12/29 05:36:35;;;;;;;34.72;25.58;;;1.80;1.00;;;;;;5010473;28;20227;-79
2020/12/29 05:39:07;;;;;;;34.60;25.33;;;1.80;1.00;;;;;;5006599;28;20242;-80
2020/12/29 05:41:38;;;;;;;36.67;25.63;;;1.70;1.00;;;;;;5014015;28;20255;-80
2020/12/29 05:44:06;;;;;;;38.83;26.48;;;1.70;1.00;;;;;;5009986;28;20236;-79
2020/12/29 05:46:32;;;;;;;40.67;27.40;;;1.70;1.00;;;;;;5014665;28;20238;-79
2020/12/29 05:49:01;;;;;;;37.30;27.25;;;1.60;1.00;;;;;;5009243;28;20262;-78
2020/12/29 05:51:28;;;;;;;36.78;28.05;;;1.60;1.00;;;;;;5006748;28;20235;-77
2020/12/29 05:54:01;;;;;;;33.42;25.60;;;1.60;1.00;;;;;;4993937;28;20225;-78
2020/12/29 05:56:32;;;;;;;37.92;25.10;;;1.60;1.00;;;;;;5011029;28;20230;-78
2020/12/29 05:59:03;;;;;;;36.92;27.75;;;1.50;1.00;;;;;;5015813;28;21383;-76
2020/12/29 06:01:36;;;;;;;39.05;27.90;;;1.50;1.00;;;;;;5014175;28;20223;-76
2020/12/29 06:04:04;;;;;;;38.35;27.50;;;1.50;1.00;;;;;;5022653;28;20222;-77
2020/12/29 06:06:32;;;;;;;37.03;25.92;;;1.50;1.00;;;;;;5009523;28;20246;-77
2020/12/29 06:09:03;;;;;;;35.35;27.08;;;1.40;1.00;;;;;;5014452;28;20226;-77
2020/12/29 06:11:37;;;;;;;36.72;28.48;;;1.40;1.00;;;;;;5017502;28;20333;-77
2020/12/29 06:14:12;;;;;;;37.67;26.65;;;1.40;1.00;;;;;;4994128;28;20233;-79
2020/12/29 06:16:40;;;;;;;37.67;27.05;;;1.30;1.00;;;;;;5011484;28;20219;-78
2020/12/29 06:19:23;;;;;;;36.45;25.25;;;1.30;1.00;;;;;;5018403;28;20315;-77
2020/12/29 06:21:57;;;;;;;34.72;25.67;;;1.30;1.00;;;;;;5006399;28;20235;-76
2020/12/29 06:24:24;;;;;;;35.20;26.35;;;1.30;1.00;;;;;;5028062;28;20258;-78
2020/12/29 06:26:53;;;;;;;37.40;26.60;;;1.20;1.00;;;;;;5027059;28;20231;-78
2020/12/29 06:29:21;;;;;;;34.97;26.38;;;1.30;1.00;;;;;;5015219;28;20239;-79
2020/12/29 06:31:50;;;;;;;37.72;26.65;;;1.20;1.00;;;;;;5012406;28;21148;-77
2020/12/29 06:34:18;;;;;;;38.38;28.40;;;1.10;1.00;;;;;;5007522;28;20234;-78
2020/12/29 06:36:48;;;;;;;39.10;28.05;;;1.10;1.00;;;;;;5007626;28;21340;-79
2020/12/29 06:39:15;;;;;;;38.28;28.60;;;1.10;1.00;;;;;;5017886;28;20229;-77
2020/12/29 06:41:41;;;;;;;38.35;27.98;;;1.10;1.00;;;;;;5010399;28;20238;-78
2020/12/29 06:44:12;;;;;;;38.00;27.40;;;1.10;1.00;;;;;;5007492;28;20228;-78
2020/12/29 06:46:38;;;;;;;37.13;26.48;;;1.10;1.00;;;;;;5026432;28;20329;-77
2020/12/29 06:49:19;;;;;;;36.53;26.75;;;1.10;1.00;;;;;;5020372;28;20226;-79
2020/12/29 06:51:46;;;;;;;33.22;25.80;;;1.10;1.00;;;;;;5006153;28;20248;-79
2020/12/29 06:54:15;;;;;;;39.17;27.10;;;1.10;1.00;;;;;;5008628;28;20226;-80
2020/12/29 06:56:57;;;;;;;40.97;31.08;;;1.10;1.00;;;;;;4987352;28;20235;-81
2020/12/29 06:59:24;;;;;;;43.20;29.90;;;1.00;1.00;;;;;;4985986;28;20230;-79
2020/12/29 07:01:50;;;;;;;38.33;28.63;;;1.00;1.00;;;;;;5008245;28;20223;-77
2020/12/29 07:08:13;;;;;;;38.47;28.30;;;0.90;1.00;;;;;;4995627;28;20222;-79
2020/12/29 07:18:14;;;;;;;34.42;26.40;;;0.90;1.00;;;;;;4987192;28;21068;-78
2020/12/29 07:21:35;;;;;;;38.58;28.10;;;0.80;1.00;;;;;;4985492;28;20765;-78
2020/12/29 07:27:33;;;;;;;36.05;26.58;;;0.70;1.00;;;;;;5045493;23;20270;-78
2020/12/29 07:30:05;;;;;;;41.25;30.10;;;0.70;1.00;;;;;;5043027;28;20214;-77
2020/12/29 07:32:44;;;;;;;41.15;29.30;;;0.70;1.00;;;;;;5032041;28;20800;-79
2020/12/29 07:35:17;;;;;;;41.28;28.20;;;0.70;1.00;;;;;;5032459;28;20225;-78
2020/12/29 07:37:57;;;;;;;42.17;29.50;;;0.70;1.00;;;;;;5022746;28;20322;-77
2020/12/29 07:40:41;;;;;;;43.72;28.27;;;0.60;1.00;;;;;;5024584;28;20227;-79
2020/12/29 07:43:21;;;;;;;41.05;27.85;;;0.60;1.00;;;;;;5012411;28;20254;-78
2020/12/29 07:46:00;;;;;;;36.03;27.08;;;0.70;1.00;;;;;;5013911;28;20237;-80
2020/12/29 07:48:36;;;;;;;36.78;27.63;;;0.70;1.00;;;;;;5012673;28;20378;-79
2020/12/29 07:51:19;;;;;;;42.05;28.80;;;0.70;1.00;;;;;;5010452;28;20312;-78
2020/12/29 07:53:53;;;;;;;43.17;30.77;;;0.70;1.00;;;;;;5025703;28;20222;-78
2020/12/29 07:56:31;;;;;;;38.35;29.25;;;0.70;1.00;;;;;;5014346;28;20230;-78
2020/12/29 08:02:22;;;;;;;43.70;29.75;;;0.70;1.00;;;;;;5013927;28;20218;-77
2020/12/29 08:04:50;;;;;;;40.65;28.90;;;0.70;1.00;;;;;;5019249;28;21030;-76
2020/12/29 08:07:39;;;;;;;36.85;27.80;;;0.70;1.00;;;;;;5102287;23;20236;-76
2020/12/29 08:10:15;;;;;;;44.42;29.02;;;0.80;1.00;;;;;;5010637;28;20224;-78
2020/12/29 08:12:54;;;;;;;39.40;26.65;;;0.90;1.00;;;;;;5023684;28;20223;-78
2020/12/29 08:15:32;;;;;;;42.65;29.23;;;1.00;1.00;;;;;;5013778;28;20223;-77
2020/12/29 08:18:10;;;;;;;41.58;27.85;;;1.00;1.00;;;;;;5137994;23;20235;-79
2020/12/29 08:20:45;;;;;;;37.05;28.05;;;1.10;1.00;;;;;;5027138;28;20230;-78
2020/12/29 08:23:19;;;;;;;40.70;29.52;;;1.20;1.00;;;;;;5029661;28;20222;-79
2020/12/29 08:25:49;;;;;;;36.20;27.80;;;1.30;1.00;;;;;;5032899;28;20228;-79
2020/12/29 08:28:17;;;;;;;40.13;28.75;;;1.40;1.00;;;;;;5023428;28;20305;-80
2020/12/29 08:30:43;;;;;;;36.88;28.27;;;1.40;1.00;;;;;;5013778;28;20218;-79
2020/12/29 08:33:13;;;;;;;46.25;29.60;;;1.40;1.00;;;;;;5014498;28;20286;-75
2020/12/29 08:35:43;;;;;;;39.78;29.67;;;1.40;1.00;;;;;;5012724;28;21185;-76
2020/12/29 08:38:26;;;;;;;40.03;29.48;;;1.30;1.00;;;;;;5012320;28;20219;-79
2020/12/29 08:41:03;;;;;;;42.67;28.20;;;1.30;1.00;;;;;;5016742;28;20223;-78
2020/12/29 08:43:30;;;;;;;45.30;30.00;;;1.30;1.00;;;;;;5019498;28;20325;-77
2020/12/29 08:46:02;;;;;;;36.90;29.38;;;1.30;1.00;;;;;;5022462;28;20230;-78
2020/12/29 08:48:33;;;;;;;35.70;26.67;;;1.30;1.00;;;;;;5018991;28;21229;-78
2020/12/29 08:51:00;;;;;;;37.80;27.75;;;1.30;1.00;;;;;;5009203;28;20287;-78
2020/12/29 08:53:27;;;;;;;40.90;29.20;;;1.30;1.00;;;;;;5011301;28;20265;-79
2020/12/29 08:55:55;;;;;;;37.45;30.10;;;1.40;1.00;;;;;;5015764;28;20219;-79
2020/12/29 08:58:24;;;;;;;39.72;29.83;;;1.40;1.00;;;;;;5010039;28;20235;-79
2020/12/29 09:00:51;;;;;;;38.78;27.90;;;1.50;1.00;;;;;;5010111;28;20330;-78
2020/12/29 09:03:22;;;;;;;36.88;27.77;;;1.50;1.00;;;;;;5018788;28;20219;-79
2020/12/29 09:05:51;;;;;;;41.97;29.52;;;1.60;1.00;;;;;;5016414;28;20227;-78
2020/12/29 09:08:27;;;;;;;38.45;27.80;;;1.70;1.00;;;;;;5018451;28;20245;-82
2020/12/29 09:11:10;;;;;;;42.22;28.42;;;1.80;1.00;;;;;;5024142;28;20214;-80
2020/12/29 09:13:37;;;;;;;37.58;26.90;;;1.90;1.00;;;;;;5024966;28;20203;-81
2020/12/29 09:16:10;;;;;;;35.72;26.60;;;2.10;1.00;;;;;;5031350;28;20214;-81
2020/12/29 09:18:41;;;;;;;36.00;25.90;;;2.40;1.00;;;;;;5031323;28;20259;-83
2020/12/29 09:21:21;;;;;;;32.70;26.52;;;2.50;1.00;;;;;;5023266;28;20234;-82
2020/12/29 09:23:58;;;;;;;34.03;24.67;;;2.60;1.00;;;;;;5032143;28;20242;-80
2020/12/29 09:26:25;;;;;;;33.33;24.60;;;2.70;1.00;;;;;;5025378;28;20214;-80
2020/12/29 09:28:51;;;;;;;32.15;25.95;;;2.70;1.00;;;;;;5014345;28;20282;-80
2020/12/29 09:31:24;;;;;;;34.53;26.48;;;2.80;1.00;;;;;;5021186;28;20283;-82
2020/12/29 09:33:50;;;;;;;31.38;24.40;;;3.00;1.00;;;;;;5025856;28;20257;-82
2020/12/29 09:36:23;;;;;;;30.02;25.02;;;3.20;1.00;;;;;;5027863;28;20984;-81
2020/12/29 09:38:51;;;;;;;29.95;23.73;;;3.10;1.00;;;;;;5020047;28;21046;-81
2020/12/29 09:41:17;;;;;;;28.90;21.83;;;3.20;1.00;;;;;;5019024;28;20231;-81
2020/12/29 09:43:45;;;;;;;31.15;23.70;;;3.20;1.00;;;;;;5019233;28;20224;-82
2020/12/29 09:46:12;;;;;;;28.05;21.48;;;3.20;1.00;;;;;;5025621;28;20289;-81
2020/12/29 09:48:41;;;;;;;26.58;20.30;;;3.20;1.00;;;;;;5019565;28;20273;-82
2020/12/29 09:51:09;;;;;;;25.38;20.80;;;3.20;1.00;;;;;;5019393;28;20219;-81
2020/12/29 09:53:36;;;;;;;23.15;19.27;;;3.20;1.00;;;;;;5020208;28;20226;-80
2020/12/29 09:56:02;;;;;;;27.52;19.05;;;3.40;1.00;;;;;;5021011;28;20230;-79
2020/12/29 09:58:28;;;;;;;24.38;20.73;;;3.60;1.00;;;;;;5022569;28;20230;-82
2020/12/29 10:00:55;;;;;;;20.63;18.10;;;3.80;1.00;;;;;;5034263;28;20227;-83
2020/12/29 10:03:21;;;;;;;22.80;17.02;;;4.20;1.00;;;;;;5018939;28;20310;-82
2020/12/29 10:05:56;;;;;;;21.38;17.80;;;4.50;1.00;;;;;;5017311;28;20231;-82
2020/12/29 10:08:23;;;;;;;19.08;16.65;;;4.70;1.00;;;;;;5020478;28;20222;-81
2020/12/29 10:10:51;;;;;;;17.27;15.45;;;5.00;1.00;;;;;;5019183;28;20897;-81
2020/12/29 10:13:17;;;;;;;18.13;16.00;;;5.30;1.00;;;;;;5033918;28;20239;-80
2020/12/29 10:15:43;;;;;;;16.90;14.18;;;5.50;1.00;;;;;;5026378;28;20238;-81
2020/12/29 10:18:10;;;;;;;17.70;15.30;;;5.40;1.00;;;;;;5034603;28;20226;-81
2020/12/29 10:20:36;;;;;;;16.98;14.05;;;5.10;1.00;;;;;;5034632;28;20235;-82
2020/12/29 10:23:02;;;;;;;16.23;14.38;;;5.10;1.00;;;;;;5038342;28;20206;-81
2020/12/29 10:25:29;;;;;;;17.27;15.32;;;5.20;1.00;;;;;;5028809;28;20336;-82
2020/12/29 10:27:57;;;;;;;15.77;13.93;;;5.20;1.00;;;;;;5020664;28;20235;-82
2020/12/29 10:30:23;;;;;;;18.27;15.77;;;5.20;1.00;;;;;;5017960;28;20887;-82
2020/12/29 10:32:49;;;;;;;15.48;12.98;;;5.20;1.00;;;;;;5023532;28;20230;-82
2020/12/29 10:35:16;;;;;;;19.65;14.13;;;5.30;1.00;;;;;;5018753;28;20254;-83
2020/12/29 10:37:42;;;;;;;15.35;13.68;;;5.20;1.00;;;;;;5019018;28;20634;-82
2020/12/29 10:40:09;;;;;;;17.80;13.88;;;5.10;1.00;;;;;;5021606;28;21254;-82
2020/12/29 10:42:35;;;;;;;16.55;14.23;;;5.00;1.00;;;;;;5027704;28;20206;-82
2020/12/29 10:45:03;;;;;;;17.58;14.00;;;5.10;1.00;;;;;;5023457;28;20238;-80
2020/12/29 10:47:29;;;;;;;17.42;13.25;;;5.20;1.00;;;;;;5024416;28;20234;-81
2020/12/29 10:49:56;;;;;;;16.33;13.73;;;5.20;1.00;;;;;;5033156;28;20222;-79
2020/12/29 10:52:22;;;;;;;16.25;12.70;;;5.20;1.00;;;;;;5028018;28;20378;-81
2020/12/29 10:54:48;;;;;;;15.90;13.32;;;5.00;1.00;;;;;;5028730;28;20223;-82
2020/12/29 10:57:14;;;;;;;14.27;11.52;;;5.00;1.00;;;;;;5025787;28;20701;-79
2020/12/29 10:59:41;;;;;;;17.05;14.25;;;5.00;1.00;;;;;;5034311;28;20215;-78
2020/12/29 11:02:09;;;;;;;14.90;12.98;;;5.10;1.00;;;;;;5044506;28;20219;-81
2020/12/29 11:04:35;;;;;;;13.88;12.07;;;5.00;1.00;;;;;;5046588;28;20224;-83
2020/12/29 11:07:02;;;;;;;15.63;13.52;;;4.90;1.00;;;;;;5036506;28;20267;-81
2020/12/29 11:09:28;;;;;;;13.70;12.27;;;4.90;1.00;;;;;;5042815;28;20288;-81
2020/12/29 11:11:55;;;;;;;13.95;11.30;;;4.90;1.00;;;;;;5025981;28;20305;-82
2020/12/29 11:14:21;;;;;;;16.27;12.25;;;4.80;1.00;;;;;;5031300;28;20226;-81
2020/12/29 11:16:48;;;;;;;14.40;11.55;;;4.80;1.00;;;;;;5021609;28;20250;-81
2020/12/29 11:19:16;;;;;;;18.25;11.77;;;4.90;1.00;;;;;;5024042;28;20236;-80
2020/12/29 11:21:45;;;;;;;13.77;11.43;;;4.80;1.00;;;;;;5018563;28;20321;-81
2020/12/29 11:24:11;;;;;;;15.13;12.25;;;4.90;1.00;;;;;;5025955;28;20222;-80
2020/12/29 11:26:38;;;;;;;13.13;11.80;;;5.00;1.00;;;;;;5025482;28;20211;-81
2020/12/29 11:29:06;;;;;;;14.50;10.93;;;5.10;1.00;;;;;;5029830;28;20235;-83
2020/12/29 11:31:32;;;;;;;14.65;12.30;;;5.00;1.00;;;;;;5021511;28;20279;-81
2020/12/29 11:33:58;;;;;;;12.98;11.65;;;5.00;1.00;;;;;;5017156;28;20257;-80
2020/12/29 11:36:25;;;;;;;12.70;11.40;;;5.10;1.00;;;;;;5021573;28;20231;-79
2020/12/29 11:38:52;;;;;;;12.88;10.45;;;5.10;1.00;;;;;;5017619;28;20272;-80
2020/12/29 11:41:18;;;;;;;14.07;11.25;;;5.00;1.00;;;;;;5018496;28;20253;-79
2020/12/29 11:43:45;;;;;;;12.80;11.32;;;4.90;1.00;;;;;;5017961;28;20220;-78
2020/12/29 11:46:11;;;;;;;14.25;12.75;;;4.90;1.00;;;;;;5027466;28;20230;-79
2020/12/29 11:48:37;;;;;;;14.27;12.73;;;5.00;1.00;;;;;;5028540;28;20299;-77
2020/12/29 11:51:08;;;;;;;14.45;12.20;;;5.10;1.00;;;;;;5022743;28;20230;-80
2020/12/29 11:53:35;;;;;;;13.27;11.88;;;5.00;1.00;;;;;;5021111;28;20392;-78
2020/12/29 11:56:01;;;;;;;15.02;11.93;;;5.00;1.00;;;;;;5020399;28;20226;-80
2020/12/29 11:58:27;;;;;;;12.02;10.65;;;5.10;1.00;;;;;;5022860;28;20262;-79
2020/12/29 12:00:54;;;;;;;11.93;10.73;;;5.00;1.00;;;;;;5025127;28;20231;-81
2020/12/29 12:03:20;;;;;;;13.65;11.55;;;4.90;1.00;;;;;;5025501;28;20222;-79
2020/12/29 12:05:47;;;;;;;13.65;12.25;;;5.00;1.00;;;;;;5025607;28;20231;-78
2020/12/29 12:08:14;;;;;;;13.20;11.05;;;5.00;1.00;;;;;;5025539;28;20833;-81
2020/12/29 12:10:41;;;;;;;12.52;10.15;;;4.80;1.00;;;;;;5022930;28;20231;-79
2020/12/29 12:13:08;;;;;;;11.43;9.80;;;4.80;1.00;;;;;;5019024;28;20277;-80
2020/12/29 12:15:34;;;;;;;13.50;12.10;;;4.90;1.00;;;;;;5030132;28;20333;-81
2020/12/29 12:18:00;;;;;;;14.30;10.73;;;4.90;1.00;;;;;;5027315;28;20233;-78
2020/12/29 12:20:27;;;;;;;12.27;10.32;;;4.90;1.00;;;;;;5027779;28;20227;-78
2020/12/29 12:22:53;;;;;;;12.95;10.52;;;5.00;1.00;;;;;;5028897;28;20234;-78
2020/12/29 12:25:20;;;;;;;13.75;11.32;;;4.90;1.00;;;;;;5038315;28;20270;-78
2020/12/29 12:27:47;;;;;;;11.65;10.48;;;5.00;1.00;;;;;;5037013;28;20215;-78
2020/12/29 12:30:14;;;;;;;10.60;9.60;;;5.00;1.00;;;;;;5043731;28;20231;-78
2020/12/29 12:32:40;;;;;;;11.55;9.45;;;5.00;1.00;;;;;;5032643;28;20238;-79
2020/12/29 12:35:06;;;;;;;12.13;10.90;;;5.10;1.00;;;;;;5039325;28;20242;-77
2020/12/29 12:37:33;;;;;;;11.98;9.98;;;5.40;1.00;;;;;;5040267;28;20277;-78
2020/12/29 12:39:59;;;;;;;10.77;9.32;;;6.10;1.00;;;;;;5035063;28;20204;-80
2020/12/29 12:42:25;;;;;;;10.63;9.52;;;6.50;1.00;;;;;;5034188;28;20231;-81
2020/12/29 12:44:52;;;;;;;9.65;8.65;;;6.70;1.00;;;;;;5019803;28;21610;-78
2020/12/29 12:47:18;;;;;;;9.82;8.70;;;7.00;1.00;;;;;;5014051;28;20253;-81
2020/12/29 12:49:45;;;;;;;10.10;9.07;;;7.30;1.00;;;;;;5019234;28;20779;-79
2020/12/29 12:52:11;;;;;;;9.80;8.80;;;7.30;1.00;;;;;;5021127;28;20265;-81
2020/12/29 12:54:37;;;;;;;8.82;7.40;;;7.10;1.00;;;;;;5024350;28;20239;-80
2020/12/29 12:57:06;;;;;;;9.30;8.38;;;6.80;1.00;;;;;;5015752;28;20653;-79
2020/12/29 12:59:32;;;;;;;13.80;9.95;;;6.80;1.00;;;;;;5016190;28;21304;-82
2020/12/29 13:01:59;;;;;;;9.57;8.50;;;6.70;1.00;;;;;;5014627;28;20303;-80
2020/12/29 13:04:26;;;;;;;11.10;9.00;;;6.40;1.00;;;;;;5013828;28;20227;-80
2020/12/29 13:06:53;;;;;;;10.15;9.10;;;6.20;1.00;;;;;;5013187;28;20231;-80
2020/12/29 13:09:19;;;;;;;9.68;8.68;;;6.00;1.00;;;;;;5022385;28;20231;-80
2020/12/29 13:11:48;;;;;;;8.85;8.05;;;5.80;1.00;;;;;;5018871;28;20234;-81